Sao Roque, Brazil
Current Conditions -  °F | °C
As of 6:00 PM on Friday 19 Dec 2014 (Local Time) from SBSV Reporting Station
Broken Clouds Broken Clouds  
Wind Chill: 77°   Ceiling: 1500
Heat Index: 78°   Visibility: 6mi
Dew Point: 73°   Wind: 10mph
Humidity: 89%   Direction: 60°ENE
Pressure: 29.85"   Gusts: NA
Location:  12.63°S, 40.27°W
Report Text: SBSV 192100Z 06009KT 9999 BKN015 FEW020TCU BKN070 25/23 Q1011
Loading
Personal Weather Stations






























Interactive Weather Map New forecast layout! Learn more

10-Day Weather Forecast

Advertisements
Track Severe Weather on mobile